Station GPXA2 - Grave Point, AK Image indicating link to RSS feed of recent meteorological observations for station GPXA2


Conditions at GPXA2 as of
(7:22 am AKDT)
1522 GMT on 05/02/2026:
     

Click on the graph icon in the table below to see a time series plot of the last five days of that observation.

5-day plot - Wind Direction Wind Direction (WDIR): SE ( 130 deg true )
5-day plot - Wind Speed Wind Speed (WSPD): 13.0 kts
5-day plot - Wind Gust Wind Gust (GST): 18.1 kts
5-day plot - Atmospheric Pressure Atmospheric Pressure (PRES):30.20 in
5-day plot - Air Temperature Air Temperature (ATMP): 44.2 °F
5-day plot - Dew Point Dew Point (DEWP): 42.3 °F
5-day plot - Wind Chill Wind Chill (CHILL): 37.2 °F
5-day plot - Wind Speed at 10 Meters Wind Speed at 10 meters (WSPD10M): 13.6 kts
5-day plot - Wind Speed at 20 Meters Wind Speed at 20 meters (WSPD20M): 15.5 kts
5-day plot -  Wind Speed, Wind Gust and Atmospheric Pressure Combined plot of Wind Speed, Gust, and Air Pressure
Previous observations
TIME
(AKDT)
5-day plot - Wind Direction
WDIR
 
5-day plot - Wind Speed
WSPD
kts
5-day plot - Wind Gust
GST
kts
5-day plot - Wave Height
WVHT
ft
5-day plot - Dominant Wave Period
DPD
sec
5-day plot - Average Wave Period
APD
sec
5-day plot - Mean Wave Direction
MWD
 
5-day plot - Atmospheric Pressure
PRES
in
5-day plot - Pressure Tendency
PTDY
in
5-day plot - Air Temperature
ATMP
°F
5-day plot - Water Temperature
WTMP
°F
5-day plot - Dew Point
DEWP
°F
5-day plot - Salinity
SAL
psu
5-day plot - Visibility
VIS
nmi
5-day plot - Tide (above MLLW)
TIDE
ft
2026-05-02 07:12 am SE 15.0 21.0----30.20- 43.7- 42.1---
2026-05-02 07:02 am SE 15.9 22.0----30.20- 43.3- 41.7---
2026-05-02 06:52 am SE 15.0 21.0----30.20- 44.1- 42.1---
2026-05-02 06:42 am SE 15.0 24.1----30.20- 45.0- 42.8---
2026-05-02 06:32 am SE 15.0 24.1----30.20- 45.0- 42.4---
2026-05-02 06:22 am SE 19.0 28.0----30.19- 44.6- 42.4---
2026-05-02 06:12 am SE 17.1 26.0----30.19- 44.6- 42.4---
2026-05-02 06:02 am SE 17.1 27.0----30.20- 45.0- 42.8---
2026-05-02 05:52 am SE 17.1 26.0----30.19- 45.0- 42.4---
2026-05-02 05:42 am SE 15.9 27.0----30.19- 45.3- 42.6---
2026-05-02 05:32 am SE 14.0 22.9----30.19- 45.5- 43.0---
2026-05-02 05:22 am SE 15.0 22.0----30.20- 45.7- 43.5---
2026-05-02 05:12 amESE 15.0 25.1----30.19- 45.7- 43.5---
2026-05-02 05:02 amESE 15.9 25.1----30.19- 45.3- 43.2---
2026-05-02 04:52 amESE 15.9 28.0----30.18- 45.3- 42.6---
2026-05-02 04:42 amESE 17.1 29.9----30.18- 45.1- 43.0---
2026-05-02 04:32 amESE 17.1 24.1----30.19- 45.1- 43.2---
2026-05-02 04:22 amESE 17.1 26.0----30.18- 45.7- 43.2---
2026-05-02 04:12 amESE 15.0 22.0----30.19- 45.7- 43.7---
2026-05-02 04:02 amESE 15.0 26.0----30.18- 46.4- 44.2---
2026-05-02 03:52 amESE 15.9 27.0----30.17- 46.2- 44.2---
2026-05-02 03:42 amESE 15.9 24.1----30.17- 46.4- 44.4---
2026-05-02 03:32 am-------30.17- 46.6- 44.6---
2026-05-02 03:12 amESE 17.1 28.9----30.17- 46.0- 44.1---
2026-05-02 03:02 am SE 15.0 24.1----30.18- 46.2- 44.1---
2026-05-02 02:52 am SE 18.1 24.1----30.18- 44.8- 42.8---
2026-05-02 02:42 am SE 17.1 25.1----30.18- 44.6- 43.0---
2026-05-02 02:32 amESE 15.0 22.9----30.18- 44.4- 42.8---
2026-05-02 02:22 am SE 18.1 22.9----30.18- 44.2- 42.6---
2026-05-02 02:12 am SE 18.1 26.0----30.17- 44.6- 42.6---
2026-05-02 02:02 amESE 14.0 24.1----30.17- 47.5- 44.1---
2026-05-02 01:52 am SE 17.1 26.0----30.18- 46.9- 44.4---
2026-05-02 01:42 am SE 17.1 26.0----30.18- 46.9- 44.4---
2026-05-02 01:32 am SE 13.0 21.0----30.19- 46.9- 44.4---
2026-05-02 01:22 amESE 12.0 18.1----30.20- 46.9- 44.8---
2026-05-02 01:12 amESE 13.0 21.0----30.20- 47.3- 45.1---
2026-05-02 01:02 amESE 11.1 18.1----30.21- 47.5- 45.3---
2026-05-02 12:52 am SE 8.9 14.0----30.21- 46.4- 44.4---
2026-05-02 12:42 amSSE 12.0 15.9----30.22- 45.0- 43.0---
2026-05-02 12:32 am SE 9.9 15.9----30.22- 45.3- 43.3---
2026-05-02 12:22 amESE 9.9 15.9----30.22- 47.5- 44.4---
2026-05-02 12:12 am SE 11.1 15.9----30.22- 47.5- 44.4---
2026-05-02 12:02 amESE 8.9 15.0----30.22- 48.2- 44.8---
2026-05-01 11:52 pmESE 8.9 15.0----30.22- 48.2- 44.8---
2026-05-01 11:42 pmESE 8.9 15.9----30.22- 48.0- 44.6---
2026-05-01 11:32 pmESE 11.1 18.1----30.22- 47.7- 44.6---
2026-05-01 11:22 pmESE 8.0 15.0----30.21- 47.7- 44.6---
2026-05-01 11:12 pmESE 9.9 15.9----30.21- 47.5- 44.8---
2026-05-01 11:02 pmESE 11.1 21.0----30.21- 47.5- 44.8---
2026-05-01 10:52 pmESE 12.0 20.0----30.20- 46.9- 44.4---
2026-05-01 10:42 pm SE 14.0 20.0----30.19- 46.4- 44.2---
2026-05-01 10:32 pm SE 12.0 20.0----30.19- 47.3- 44.2---
2026-05-01 10:22 pmESE 8.9 17.1----30.19- 48.6- 43.9---
2026-05-01 10:12 pmESE 8.9 15.9----30.19- 48.0- 43.7---
2026-05-01 10:02 pmESE 7.0 13.0----30.20- 47.7- 44.1---
2026-05-01 09:52 pmESE 6.0 13.0----30.19- 47.5- 44.1---
2026-05-01 09:42 pm SE 7.0 15.9----30.19- 46.4- 43.9---
2026-05-01 09:32 pmESE 8.9 14.0----30.19- 46.6- 44.4---
2026-05-01 09:22 pmESE 8.9 13.0----30.19- 45.7- 44.1---
2026-05-01 09:12 pm SE 12.0 17.1----30.20- 45.5- 43.9---
2026-05-01 09:02 pm SE 12.0 18.1----30.19- 45.7- 44.1---
2026-05-01 08:52 pm SE 12.0 18.1----30.20- 45.5- 43.9---
2026-05-01 08:42 pm SE 11.1 17.1----30.19- 45.3- 43.7---
2026-05-01 08:32 pmSSE 4.1 11.1----30.20- 46.4- 44.4---
2026-05-01 08:22 pmESE 5.1 11.1----30.19- 46.9- 45.0---
2026-05-01 08:12 pm SE 6.0 9.9----30.20- 46.0- 44.4---
2026-05-01 08:02 pm SE 6.0 8.9----30.20- 45.3- 43.7---
2026-05-01 07:52 pm SE 5.1 9.9----30.21- 45.3- 43.7---
2026-05-01 07:42 pmSSE 5.1 8.9----30.21- 45.3- 43.7---
2026-05-01 07:32 pmSSE 5.1 9.9----30.20- 46.6- 44.6---
2026-05-01 07:22 pm SE 6.0 12.0----30.20- 46.2- 44.2---
2026-05-01 07:12 pm SE 11.1 15.0----30.21- 45.3- 43.3---
2026-05-01 07:02 pmESE 5.1 9.9----30.21- 45.5- 43.9---
2026-05-01 06:52 pm SE 6.0 8.0----30.22- 45.0- 43.3---
2026-05-01 06:42 pmESE 7.0 8.9----30.21- 45.3- 43.7---
2026-05-01 06:32 pmESE 6.0 8.9----30.22- 45.5- 43.9---
2026-05-01 06:22 pmESE 5.1 8.0----30.22- 45.5- 43.9---
2026-05-01 06:12 pmESE 5.1 8.0----30.23- 45.5- 43.9---
2026-05-01 06:02 pm SE 6.0 8.9----30.22- 45.0- 43.3---
2026-05-01 05:52 pmSSE 6.0 8.9----30.22- 45.0- 43.3---
2026-05-01 05:42 pmESE 6.0 8.9----30.22- 45.9- 43.9---
2026-05-01 05:32 pmESE 6.0 9.9----30.22- 46.0- 44.1---
2026-05-01 05:22 pm SE 7.0 8.9----30.22- 45.3- 43.3---
2026-05-01 05:12 pm SE 7.0 11.1----30.22- 46.0- 43.9---
2026-05-01 05:02 pm SE 7.0 12.0----30.22- 46.2- 44.1---
2026-05-01 04:52 pm SE 7.0 12.0----30.22- 45.7- 43.7---
2026-05-01 04:42 pm SE 7.0 13.0----30.22- 45.7- 43.7---
2026-05-01 04:32 pmESE 6.0 9.9----30.23- 46.0- 44.1---
2026-05-01 04:22 pmESE 5.1 11.1----30.23- 45.9- 43.9---
2026-05-01 04:12 pmESE 6.0 9.9----30.24- 45.5- 43.3---
2026-05-01 04:02 pmESE 6.0 8.9----30.23- 45.5- 43.5---
2026-05-01 03:52 pm SE 7.0 9.9----30.23- 45.7- 43.7---
2026-05-01 03:42 pmESE 6.0 9.9----30.24- 46.0- 43.9---
2026-05-01 03:32 pmESE 7.0 9.9----30.24- 45.9- 43.9---
2026-05-01 03:22 pmESE 6.0 11.1----30.23- 45.5- 43.5---
2026-05-01 03:12 pmESE 7.0 12.0----30.23- 45.3- 43.3---
2026-05-01 03:02 pmESE 6.0 9.9----30.24- 45.9- 43.7---
2026-05-01 02:52 pm E 4.1 8.0----30.24- 45.9- 43.7---
2026-05-01 02:42 pmESE 6.0 8.9----30.24- 44.8- 42.8---
2026-05-01 02:32 pm SE 5.1 9.9----30.24- 45.1- 43.2---
2026-05-01 02:22 pmESE 4.1 6.0----30.24- 45.3- 43.3---
2026-05-01 02:12 pm SE 6.0 8.0----30.24- 44.4- 42.4---
2026-05-01 02:02 pm SE 7.0 8.0----30.24- 44.2- 42.3---
2026-05-01 01:52 pm SE 7.0 8.0----30.24- 44.1- 42.1---
2026-05-01 01:42 pm SE 6.0 8.0----30.23- 43.9- 42.3---
2026-05-01 01:32 pm SE 5.1 7.0----30.24- 43.9- 42.3---
2026-05-01 01:22 pm SE 5.1 6.0----30.24- 43.9- 41.9---
2026-05-01 01:12 pm SE 2.9 4.1----30.25- 44.8- 42.6---
2026-05-01 01:02 pm NW 1.0 2.9----30.25- 45.7- 43.7---
2026-05-01 12:52 pmSSE 1.9 2.9----30.25- 45.0- 42.8---
2026-05-01 12:42 pm SE 2.9 5.1----30.25- 45.5- 43.5---
2026-05-01 12:32 pm SE 2.9 5.1----30.25- 45.3- 43.7---
2026-05-01 12:22 pmESE 1.9 5.1----30.25- 45.0- 43.3---
2026-05-01 12:12 pmESE 1.9 5.1----30.24- 44.6- 43.0---
2026-05-01 12:02 pm NW 1.0 2.9----30.24- 44.2- 42.6---
2026-05-01 11:52 amNNW 4.1 5.1----30.24- 42.8- 41.0---
2026-05-01 11:42 amNNW 5.1 7.0----30.24- 42.6- 40.8---
2026-05-01 11:32 amNNW 6.0 8.0----30.24- 42.4- 40.6---
2026-05-01 11:22 amNNW 7.0 8.9----30.24- 42.4- 40.6---
2026-05-01 11:12 amNNW 7.0 9.9----30.23- 42.1- 40.3---
2026-05-01 11:02 amNNW 7.0 11.1----30.23- 41.9- 40.3---
2026-05-01 10:52 amNNW 7.0 11.1----30.23- 42.1- 40.5---
2026-05-01 10:42 amNNW 7.0 13.0----30.23- 41.7- 40.1---
2026-05-01 10:32 amNNW 7.0 11.1----30.22- 41.7- 40.1---
2026-05-01 10:22 amNNW 7.0 12.0----30.22- 41.5- 39.9---
2026-05-01 10:12 amNNW 6.0 11.1----30.22- 41.9- 40.3---
2026-05-01 10:02 amNNW 8.0 11.1----30.22- 41.5- 40.3---
2026-05-01 09:52 amNNW 8.0 12.0----30.22- 41.2- 39.6---
2026-05-01 09:42 amNNW 8.0 12.0----30.22- 41.2- 39.9---
2026-05-01 09:32 amNNW 7.0 12.0----30.22- 40.6- 39.4---
2026-05-01 09:22 amNNW 7.0 11.1----30.22- 40.6- 39.4---
2026-05-01 09:12 amNNW 6.0 11.1----30.22- 41.0- 39.7---
2026-05-01 09:02 amNNW 6.0 11.1----30.22- 40.8- 39.6---
2026-05-01 08:52 amNNW 8.0 12.0----30.22- 40.5- 39.2---
2026-05-01 08:42 amNNW 8.9 15.0----30.22- 40.3- 39.2---
2026-05-01 08:32 amNNW 9.9 15.0----30.22- 40.5- 39.4---
2026-05-01 08:22 amNNW 7.0 11.1----30.21- 40.8- 39.7---
2026-05-01 08:12 amNNW 7.0 8.9----30.21- 40.6- 39.6---
2026-05-01 08:02 amNNW 6.0 8.0----30.21- 40.6- 39.6---
2026-05-01 07:52 amNNW 7.0 11.1----30.21- 40.8- 39.7---
2026-05-01 07:42 amNNW 8.0 11.1----30.21- 40.6- 39.4---
2026-05-01 07:32 amNNW 6.0 8.9----30.20- 40.8- 39.6---
2026-05-01 07:22 amNNW 6.0 8.9----30.20- 41.0- 39.7---
2026-05-01 07:12 amNNW 5.1 8.0----30.20- 41.0- 39.7---
2026-05-01 07:02 amNNW 6.0 9.9----30.20- 41.0- 39.7---
2026-05-01 06:52 amNNW 2.9 6.0----30.20- 41.2- 40.1---